Terminal Aerodrome Forecast
Issued by NWS

Home | Current Version | Previous Version | Text Only | Print | Product List | Glossary On
Versions: 1 2 3 4 5 6 7 8 9 10 11 12 13 14 15 16 17 18 19 20 21 22 23 24 25
769
FTUS41 KBTV 240347 AAA
TAFSLK
TAF AMD
KSLK 240347Z 2404/2424 07011KT P6SM -PL OVC025
     FM240700 08010G18KT 4SM -SNPL BR OVC020
     FM241300 06010G17KT 4SM -SNPL BR OVC010
     FM241800 06007KT 4SM -PL BR OVC015=

USA.gov is the U.S. government's official web portal to all federal, state and local government web resources and services.